Latest Weather Observations for Warrnambool

IDV60801

Issued at 5:02 am EST Tuesday 4 August 2015 (issued every 30 minutes, with the page automatically refreshed every 10 minutes)

About weather observations | Map of weather stations | Latest weather observations for VIC | Other Formats
Station Details ID: 090186 Name: WARRNAMBOOL AIRPORT NDB Lat: -38.29 Lon: 142.45 Height: 70.8 m
Data from the previous 72 hours. | See also: Recent months at Warrnambool
Date/Time
EST
Temp
°C
App
Temp
°C
Dew
Point
Rel
Hum
%
Delta-T
°C
Wind Press
QNH
hPa
Press
MSL
hPa
Rain
since 9 am
mm
Dir
 
Spd
km/h
Gust
km/h
Spd
kts
Gust
kts
04/05:00am 3.4 -1.8 2.5 94 0.4 NNW 19 24 10 13 1022.9 1023.0 1.0
04/04:30am 3.7 -1.5 2.7 93 0.4 NW 19 22 10 12 1023.0 1023.1 1.0
04/04:00am 3.4 -1.5 2.2 92 0.5 NNW 17 22 9 12 1022.8 1022.9 1.0
04/03:30am 4.1 -1.2 3.2 94 0.4 NNW 20 24 11 13 1023.2 1023.3 1.0
04/03:00am 3.9 0.0 3.2 95 0.3 NW 13 17 7 9 1023.6 1023.7 1.0
04/02:30am 3.8 -0.9 2.9 94 0.4 NW 17 20 9 11 1023.6 1023.7 1.0
04/02:00am 4.0 -1.2 3.6 97 0.2 NW 20 26 11 14 1023.7 1023.8 0.8
04/01:30am 2.8 -2.0 2.4 97 0.2 NNW 17 20 9 11 1023.5 1023.6 0.8
04/01:00am 3.7 -1.4 3.3 97 0.2 NW 19 24 10 13 1023.7 1023.8 0.8
04/12:30am 3.8 -0.5 3.4 97 0.2 NW 15 19 8 10 1024.0 1024.1 0.8
04/12:00am 4.6 -0.3 4.0 96 0.3 NW 19 24 10 13 1024.1 1024.2 0.8
 
Date/Time
EST
Temp
°C
App
Temp
°C
Dew
Point
Rel
Hum
%
Delta-T
°C
Wind Press
QNH
hPa
Press
MSL
hPa
Rain
since 9 am
mm
Dir
 
Spd
km/h
Gust
km/h
Spd
kts
Gust
kts
03/11:30pm 4.6 0.4 4.0 96 0.3 NW 15 19 8 10 1023.9 1024.0 0.8
03/11:00pm 4.0 -0.2 3.6 97 0.2 NNW 15 17 8 9 1023.9 1024.0 0.8
03/10:30pm 4.0 -0.3 3.3 95 0.3 NW 15 19 8 10 1024.3 1024.4 0.8
03/10:00pm 4.8 1.4 3.9 94 0.4 WNW 11 17 6 9 1024.6 1024.7 0.8
03/09:30pm 4.7 1.1 3.2 90 0.6 NW 11 17 6 9 1024.5 1024.6 0.4
03/09:00pm 5.2 1.5 2.6 83 1.1 NNW 11 15 6 8 1024.4 1024.5 0.4
03/08:30pm 5.8 3.9 3.1 83 1.1 E 2 7 1 4 1024.5 1024.6 0.4
03/08:00pm 6.1 1.8 3.3 82 1.2 W 15 19 8 10 1024.4 1024.5 0.4
03/07:30pm 6.1 0.9 2.7 79 1.4 SW 19 44 10 24 1024.2 1024.3 0.4
03/07:00pm 5.0 0.9 2.2 82 1.1 SW 13 19 7 10 1023.9 1024.0 0.4
03/06:30pm 5.5 2.9 3.3 86 0.9 SW 6 11 3 6 1023.5 1023.6 0.4
03/06:00pm 5.6 2.4 3.3 85 1.0 W 9 11 5 6 1023.1 1023.2 0.4
03/05:30pm 5.9 1.6 3.2 83 1.1 SW 15 19 8 10 1022.9 1023.0 0.4
03/05:00pm 6.9 -1.2 3.2 77 1.6 SW 35 44 19 24 1022.8 1022.9 0.0
03/04:30pm 8.0 2.7 2.9 70 2.2 SSW 20 28 11 15 1022.4 1022.5 0.0
03/04:00pm 8.5 0.4 3.4 70 2.2 SSW 35 43 19 23 1022.3 1022.4 0.0
03/03:30pm 8.7 2.2 2.7 66 2.5 SW 26 35 14 19 1021.9 1022.0 0.0
03/03:00pm 8.5 0.7 1.9 63 2.7 SW 32 37 17 20 1021.5 1021.6 0.0
03/02:30pm 7.9 -0.4 2.4 68 2.3 SW 35 43 19 23 1021.3 1021.4 0.0
03/02:00pm 9.6 2.5 3.8 67 2.5 SW 30 41 16 22 1021.0 1021.1 0.0
03/01:30pm 8.0 -1.1 2.0 66 2.5 SW 39 50 21 27 1021.0 1021.1 0.0
03/01:00pm 8.7 -0.5 1.4 60 3.0 SW 39 48 21 26 1020.8 1020.9 0.0
03/12:30pm 9.3 0.3 2.6 63 2.9 SW 39 54 21 29 1020.9 1021.0 0.0
03/12:08pm 8.7 1.8 2.7 66 2.5 SSW 28 46 15 25 1021.0 1021.1 0.0
03/12:00pm 8.2 0.1 3.5 72 2.0 SSW 35 48 19 26 1021.0 1021.1 0.0
03/11:44am 8.5 -1.2 3.1 69 2.3 SW 43 63 23 34 1020.9 1021.0 0.0
03/11:30am 8.8 -0.3 3.8 71 2.2 SSW 41 50 22 27 1020.9 1021.0 0.0
03/11:00am 8.7 -0.8 1.6 61 2.9 SW 41 50 22 27 1020.5 1020.6 0.0
03/10:30am 8.7 -1.0 3.1 68 2.4 SW 43 54 23 29 1019.9 1020.0 0.0
03/10:00am 8.4 -0.7 1.8 63 2.7 SW 39 52 21 28 1019.4 1019.5 0.0
03/09:30am 8.1 -1.3 2.6 68 2.3 SW 41 54 22 29 1019.1 1019.2 0.0
03/09:00am 7.6 -3.2 -0.6 56 3.2 SW 46 59 25 32 1018.7 1018.8 9.0
03/08:30am 7.6 -2.3 1.7 66 2.4 SW 43 56 23 30 1018.0 1018.1 9.0
03/08:05am 7.6 -2.3 1.9 67 2.3 SW 43 61 23 33 1017.4 1017.5 9.0
03/08:00am 7.5 -1.2 2.0 68 2.3 SW 37 50 20 27 1017.3 1017.4 9.0
03/07:37am 7.2 -2.7 1.7 68 2.2 SW 43 61 23 33 1017.1 1017.2 9.0
03/07:30am 7.1 -3.3 1.8 69 2.2 SW 46 61 25 33 1017.0 1017.1 9.0
03/07:00am 6.7 -2.7 2.4 74 1.8 SW 41 59 22 32 1016.1 1016.2 9.0
03/06:46am 6.8 -0.5 4.6 86 1.0 WSW 32 50 17 27 1015.9 1016.0 9.0
03/06:30am 6.6 -2.4 4.4 86 1.0 SW 41 54 22 29 1015.5 1015.6 9.0
03/06:06am 6.0 -3.1 4.0 87 0.9 WSW 41 59 22 32 1015.0 1015.1 9.0
03/06:00am 6.5 -2.7 5.3 92 0.5 WSW 43 59 23 32 1015.2 1015.3 8.8
03/05:30am 6.6 -1.7 4.4 86 1.0 SW 37 46 20 25 1014.4 1014.4 8.4
03/05:00am 6.4 -2.9 5.2 92 0.5 WSW 43 59 23 32 1014.2 1014.2 8.4
03/04:32am 7.7 -0.8 5.0 83 1.2 WSW 39 69 21 37 1013.4 1013.4 7.8
03/04:30am 7.6 -1.0 4.7 82 1.3 WSW 39 50 21 27 1013.2 1013.2 7.8
03/04:00am 7.4 -0.9 5.9 90 0.7 WSW 39 50 21 27 1013.1 1013.1 7.8
03/03:31am 7.2 -2.2 5.2 87 0.9 W 44 63 24 34 1013.0 1013.0 7.6
03/03:30am 7.5 -1.9 5.6 88 0.9 W 44 57 24 31 1013.1 1013.1 7.6
03/03:02am 8.3 0.7 5.6 83 1.2 WSW 35 59 19 32 1012.4 1012.5 7.2
03/03:00am 8.2 1.1 5.3 82 1.3 WSW 32 41 17 22 1012.4 1012.5 7.2
03/02:30am 7.7 -1.0 5.8 88 0.9 WSW 41 61 22 33 1012.3 1012.4 7.2
03/02:21am 8.4 2.2 6.2 86 1.0 W 28 46 15 25 1012.3 1012.4 7.0
03/02:00am 8.0 0.0 5.6 85 1.1 W 37 46 20 25 1012.0 1012.1 7.0
03/01:30am 8.2 -1.3 6.5 89 0.8 WSW 46 67 25 36 1011.9 1012.0 7.0
03/01:25am 8.2 -0.8 6.5 89 0.8 W 43 61 23 33 1011.9 1012.0 6.6
03/01:00am 7.8 0.4 6.7 93 0.5 W 35 46 19 25 1011.9 1012.0 6.6
03/12:30am 7.8 0.9 7.1 95 0.3 WNW 33 52 18 28 1011.8 1011.9 6.4
03/12:20am 7.6 1.3 7.2 97 0.2 W 30 48 16 26 1011.8 1011.9 6.2
03/12:00am 7.6 0.6 7.0 96 0.3 NW 33 46 18 25 1011.4 1011.5 5.2
 
Date/Time
EST
Temp
°C
App
Temp
°C
Dew
Point
Rel
Hum
%
Delta-T
°C
Wind Press
QNH
hPa
Press
MSL
hPa
Rain
since 9 am
mm
Dir
 
Spd
km/h
Gust
km/h
Spd
kts
Gust
kts
02/11:30pm 7.5 1.1 6.8 95 0.3 NW 30 39 16 21 1011.3 1011.4 5.2
02/11:08pm 7.7 1.7 7.1 96 0.3 WNW 28 50 15 27 1011.6 1011.7 5.2
02/11:00pm 7.5 1.0 6.6 94 0.4 NW 30 39 16 21 1011.7 1011.8 5.0
02/10:30pm 7.5 2.5 6.6 94 0.4 WNW 22 35 12 19 1011.6 1011.7 4.8
02/10:00pm 7.4 1.6 6.3 93 0.5 WNW 26 43 14 23 1011.7 1011.8 4.8
02/09:30pm 7.1 0.1 6.0 93 0.5 NW 32 41 17 22 1011.4 1011.5 4.8
02/09:00pm 7.4 0.4 6.7 95 0.3 NW 33 43 18 23 1011.5 1011.6 4.8
02/08:30pm 7.4 1.3 6.5 94 0.4 NW 28 44 15 24 1011.5 1011.6 4.6
02/08:00pm 7.3 1.8 5.9 91 0.6 NW 24 35 13 19 1011.5 1011.6 4.6
02/07:30pm 7.7 2.9 7.3 97 0.2 NW 22 30 12 16 1011.5 1011.6 4.4
02/07:00pm 7.9 3.0 7.0 94 0.4 NW 22 35 12 19 1011.3 1011.4 4.2
02/06:30pm 8.5 2.2 5.6 82 1.3 WNW 28 44 15 24 1011.1 1011.2 4.2
02/06:00pm 8.6 2.2 5.2 79 1.5 W 28 41 15 22 1010.9 1011.0 4.2
02/05:30pm 8.5 1.4 5.6 82 1.3 W 32 39 17 21 1010.5 1010.6 4.2
02/05:13pm 8.8 1.2 5.9 82 1.3 WNW 35 54 19 29 1010.4 1010.5 4.2
02/05:00pm 9.0 0.2 5.6 79 1.5 W 41 57 22 31 1010.4 1010.5 4.2
02/04:30pm 9.7 1.6 6.8 82 1.4 W 39 57 21 31 1009.9 1010.0 4.2
02/04:27pm 9.6 2.2 6.9 83 1.3 W 35 57 19 31 1009.9 1010.0 4.0
02/04:00pm 10.4 3.3 8.0 85 1.2 W 35 44 19 24 1009.8 1009.9 4.0
02/03:30pm 9.6 2.8 9.3 98 0.1 W 35 54 19 29 1009.9 1010.0 4.0
02/03:00pm 9.2 2.7 9.1 99 0.0 W 33 52 18 28 1009.8 1009.9 4.0
02/02:52pm 8.8 1.1 8.7 99 0.0 W 39 59 21 32 1009.9 1010.0 4.0
02/02:34pm 9.3 1.0 9.2 99 0.0 W 43 63 23 34 1009.5 1009.6 3.6
02/02:30pm 9.3 1.7 9.2 99 0.0 WNW 39 54 21 29 1009.4 1009.5 3.6
02/02:28pm 9.3 2.1 9.2 99 0.0 WNW 37 54 20 29 1009.4 1009.5 3.4
02/02:25pm 9.2 2.0 9.1 99 0.0 WNW 37 48 20 26 1009.4 1009.5 3.4
02/02:13pm 9.2 1.2 9.1 99 0.0 W 41 59 22 32 1009.3 1009.4 3.2
02/02:08pm 9.3 0.4 9.2 99 0.0 W 46 61 25 33 1009.4 1009.5 3.0
02/02:00pm 9.5 0.6 9.2 98 0.1 W 46 65 25 35 1009.3 1009.4 2.8
02/01:50pm 9.6 2.1 9.5 99 0.0 W 39 57 21 31 1009.3 1009.4 2.6
02/01:45pm 9.7 2.2 9.6 99 0.1 W 39 54 21 29 1009.3 1009.4 2.6
02/01:43pm 9.8 2.0 9.7 99 0.1 W 41 59 22 32 1009.2 1009.3 2.6
02/01:30pm 9.1 0.6 8.6 97 0.2 W 43 59 23 32 1009.4 1009.5 2.2
02/01:17pm 10.3 2.9 8.4 88 0.9 WNW 37 57 20 31 1009.5 1009.6 0.6
02/01:16pm 10.5 3.5 8.4 87 1.0 WNW 35 54 19 29 1009.6 1009.7 0.4
02/01:00pm 11.4 4.2 9.1 86 1.2 NW 37 59 20 32 1009.5 1009.6 0.0
02/12:30pm 12.2 4.3 7.9 75 2.1 NW 39 59 21 32 1009.5 1009.6 0.0
02/12:00pm 11.7 3.5 6.4 70 2.5 NW 39 61 21 33 1009.8 1009.9 0.0
02/11:39am 10.5 2.5 7.6 82 1.4 NW 39 57 21 31 1010.4 1010.5 0.0
02/11:30am 10.7 1.9 7.2 79 1.7 NW 43 57 23 31 1010.5 1010.6 0.0
02/11:00am 10.7 2.2 7.0 78 1.8 NW 41 56 22 30 1010.6 1010.7 0.0
02/10:45am 10.6 2.0 6.7 77 1.8 NW 41 59 22 32 1010.7 1010.8 0.0
02/10:30am 10.1 0.6 6.6 79 1.6 NW 46 61 25 33 1010.8 1010.9 0.0
02/10:01am 9.5 1.2 6.0 79 1.6 NW 39 57 21 31 1011.0 1011.1 0.0
02/10:00am 9.7 1.8 6.2 79 1.6 NW 37 52 20 28 1011.1 1011.2 0.0
02/09:45am 9.3 1.7 5.7 78 1.6 NW 35 54 19 29 1011.1 1011.2 0.0
02/09:30am 8.9 0.9 5.8 81 1.4 NW 37 50 20 27 1011.3 1011.4 0.0
02/09:00am 8.3 1.6 5.6 83 1.2 NW 30 43 16 23 1011.5 1011.6 0.0
02/08:30am 7.5 1.1 5.3 86 1.0 NW 28 39 15 21 1011.9 1012.0 0.0
02/08:00am 6.6 0.1 4.8 88 0.8 NNW 28 35 15 19 1011.7 1011.8 0.0
02/07:30am 6.1 0.3 4.3 88 0.8 NNW 24 32 13 17 1011.7 1011.8 0.0
02/07:00am 6.2 -0.3 4.5 89 0.7 NNW 28 39 15 21 1011.6 1011.7 0.0
02/06:30am 5.9 -0.3 4.2 89 0.7 NNW 26 35 14 19 1011.6 1011.7 0.0
02/06:00am 5.8 -0.1 4.1 89 0.7 NNW 24 33 13 18 1012.0 1012.1 0.0
02/05:30am 6.2 0.0 4.2 87 0.9 NW 26 35 14 19 1012.3 1012.4 0.0
02/05:00am 6.4 -0.2 4.2 86 0.9 NNW 28 35 15 19 1012.4 1012.5 0.0
02/04:30am 6.4 -0.2 4.1 85 1.0 NW 28 33 15 18 1012.6 1012.7 0.0
02/04:00am 6.6 0.7 4.1 84 1.1 NNW 24 30 13 16 1012.9 1012.9 0.0
02/03:30am 6.4 1.3 3.9 84 1.1 NW 20 32 11 17 1013.2 1013.2 0.0
02/03:00am 6.4 1.2 3.7 83 1.1 NNW 20 28 11 15 1013.6 1013.6 0.0
02/02:30am 6.0 1.0 3.5 84 1.1 NNW 19 22 10 12 1013.8 1013.8 0.0
02/02:00am 6.6 1.0 3.2 79 1.4 NNW 22 28 12 15 1014.2 1014.2 0.0
02/01:30am 6.4 1.3 3.0 79 1.4 NNW 19 24 10 13 1014.3 1014.3 0.0
02/01:00am 6.8 1.6 3.4 79 1.4 NNW 20 26 11 14 1014.6 1014.6 0.0
02/12:30am 6.6 1.5 3.2 79 1.4 NNW 19 26 10 14 1015.0 1015.1 0.0
02/12:00am 6.3 1.7 3.5 82 1.2 NNW 17 24 9 13 1015.1 1015.2 0.0
 
Date/Time
EST
Temp
°C
App
Temp
°C
Dew
Point
Rel
Hum
%
Delta-T
°C
Wind Press
QNH
hPa
Press
MSL
hPa
Rain
since 9 am
mm
Dir
 
Spd
km/h
Gust
km/h
Spd
kts
Gust
kts
01/11:30pm 6.0 1.5 4.0 87 0.9 N 17 20 9 11 1015.4 1015.5 0.0
01/11:00pm 5.5 1.3 3.8 89 0.7 N 15 19 8 10 1015.7 1015.8 0.0
01/10:30pm 5.2 1.3 3.4 88 0.8 N 13 17 7 9 1015.7 1015.8 0.0
01/10:00pm 6.2 1.9 3.5 83 1.1 NNW 15 19 8 10 1015.6 1015.7 0.0
01/09:30pm 6.1 1.9 3.8 85 1.0 NNW 15 17 8 9 1015.8 1015.9 0.0
01/09:00pm 6.1 1.9 3.8 85 1.0 NW 15 17 8 9 1015.7 1015.8 0.0
01/08:30pm 6.6 2.5 4.1 84 1.1 NW 15 19 8 10 1015.7 1015.8 0.0
01/08:00pm 6.1 2.3 3.9 86 0.9 NNW 13 15 7 8 1015.7 1015.8 0.0
01/07:30pm 6.0 2.2 3.8 86 0.9 NNW 13 15 7 8 1015.6 1015.7 0.0
01/07:00pm 6.0 2.6 4.0 87 0.9 NW 11 15 6 8 1015.5 1015.6 0.0
01/06:30pm 6.5 3.1 3.8 83 1.2 NW 11 15 6 8 1015.5 1015.6 0.0
01/06:00pm 7.1 3.4 4.2 82 1.3 NW 13 17 7 9 1015.5 1015.6 0.0
01/05:30pm 8.3 4.6 4.3 76 1.8 WNW 13 19 7 10 1015.3 1015.4 0.0
01/05:00pm 8.9 5.2 4.7 75 1.9 W 13 19 7 10 1015.1 1015.2 0.0
01/04:30pm 9.3 6.0 4.5 72 2.1 WSW 11 15 6 8 1014.8 1014.9 0.0
01/04:00pm 9.6 4.9 3.1 64 2.8 W 17 20 9 11 1014.7 1014.7 0.0
01/03:30pm 10.0 4.3 2.8 61 3.1 W 22 28 12 15 1014.3 1014.3 0.0
01/03:00pm 10.0 4.4 3.7 65 2.8 WSW 22 28 12 15 1014.1 1014.1 0.0
01/02:30pm 10.3 4.8 3.8 64 2.9 W 22 30 12 16 1014.3 1014.3 0.0
01/02:00pm 10.2 4.1 2.6 59 3.3 W 24 33 13 18 1014.2 1014.2 0.0
01/01:30pm 11.6 5.5 4.8 63 3.1 W 26 35 14 19 1014.2 1014.2 0.0
01/01:00pm 11.4 5.5 3.9 60 3.3 W 24 35 13 19 1014.5 1014.5 0.0
01/12:30pm 11.0 5.7 2.1 54 3.8 WSW 19 24 10 13 1014.8 1014.9 0.0
01/12:00pm 9.9 3.5 0.8 53 3.7 WSW 24 33 13 18 1014.7 1014.7 0.0
01/11:30am 10.8 3.9 2.4 56 3.6 W 28 35 15 19 1014.6 1014.6 0.0
01/11:00am 10.0 4.3 3.1 62 3.0 WSW 22 30 12 16 1014.9 1015.0 0.0
01/10:30am 9.5 3.6 1.9 59 3.2 WSW 22 33 12 18 1014.6 1014.6 0.0
01/10:00am 9.5 3.6 1.4 57 3.4 WSW 22 28 12 15 1014.4 1014.4 0.0
01/09:30am 8.8 2.0 1.0 58 3.2 WSW 26 37 14 20 1014.2 1014.3 0.0
01/09:00am 8.3 2.1 2.1 65 2.6 SW 24 32 13 17 1013.4 1013.5 4.6
01/08:30am 8.6 2.7 3.8 72 2.1 WSW 24 30 13 16 1012.9 1013.0 4.6
01/08:00am 7.2 3.5 4.7 84 1.1 WNW 13 17 7 9 1012.2 1012.4 4.6
01/07:30am 7.8 4.0 7.7 99 0.0 WNW 17 22 9 12 1011.7 1011.8 4.6
01/07:00am 7.9 4.2 7.8 99 0.0 W 17 20 9 11 1011.0 1011.1 4.6
01/06:38am 7.8 3.1 7.7 99 0.0 WSW 22 32 12 17 1010.7 1010.8 4.6
01/06:30am 8.0 3.0 7.9 99 0.0 WSW 24 32 13 17 1010.6 1010.7 4.2
01/06:22am 8.1 2.7 8.0 99 0.0 WSW 26 35 14 19 1010.7 1010.8 4.2
01/06:00am 8.0 1.4 7.9 99 0.0 WSW 32 43 17 23 1010.1 1010.2 3.8
01/05:54am 7.9 1.3 7.8 99 0.0 WSW 32 46 17 25 1010.0 1010.1 3.6
01/05:50am 8.0 1.8 7.9 99 0.0 WSW 30 46 16 25 1009.9 1010.0 3.6
01/05:30am 8.2 1.5 8.2 100 0.0 SW 33 44 18 24 1009.6 1009.7 3.4

Other Formats:

Comma delimited format used in spreadsheet applications
http://www.bom.gov.au/fwo/IDV60801/IDV60801.94837.axf

JavaScript Object Notation format (JSON) in row-major order
http://www.bom.gov.au/fwo/IDV60801/IDV60801.94837.json